You are listening to:
UUEE Twr/App/Radar - Moscow, Russia

UUEE 230930Z 24004MPS 190V280 9999 SCT041 10/01 Q1019 R24L/CLRD62 NOSIG

If stream doesn't start automatically press the play button
If stream stops then reload player then press play